sensor_id;sensor_type;location;lat;lon;timestamp;temperature;humidity
24226;DHT22;51462;51.422;5.514;2023-07-13T00:01:46;19.10;99.90
24226;DHT22;51462;51.422;5.514;2023-07-13T00:04:16;19.00;99.90
24226;DHT22;51462;51.422;5.514;2023-07-13T00:06:43;18.50;99.90
24226;DHT22;51462;51.422;5.514;2023-07-13T00:09:14;18.30;99.90
24226;DHT22;51462;51.422;5.514;2023-07-13T00:11:40;18.20;99.90
24226;DHT22;51462;51.422;5.514;2023-07-13T00:14:07;18.40;99.90
24226;DHT22;51462;51.422;5.514;2023-07-13T00:16:34;18.50;99.90
24226;DHT22;51462;51.422;5.514;2023-07-13T00:19:00;18.20;99.90
24226;DHT22;51462;51.422;5.514;2023-07-13T00:21:26;18.30;99.90
24226;DHT22;51462;51.422;5.514;2023-07-13T00:23:52;18.30;99.90
24226;DHT22;51462;51.422;5.514;2023-07-13T00:26:18;18.50;99.90
24226;DHT22;51462;51.422;5.514;2023-07-13T00:28:43;18.40;99.90
24226;DHT22;51462;51.422;5.514;2023-07-13T00:31:11;18.90;99.90
24226;DHT22;51462;51.422;5.514;2023-07-13T00:33:36;18.90;99.90
24226;DHT22;51462;51.422;5.514;2023-07-13T00:36:02;19.10;99.90
24226;DHT22;51462;51.422;5.514;2023-07-13T00:38:28;19.10;99.90
24226;DHT22;51462;51.422;5.514;2023-07-13T00:40:54;19.00;99.90
24226;DHT22;51462;51.422;5.514;2023-07-13T00:43:22;18.80;99.90
24226;DHT22;51462;51.422;5.514;2023-07-13T00:48:17;18.30;99.90
24226;DHT22;51462;51.422;5.514;2023-07-13T00:50:45;18.50;99.90
24226;DHT22;51462;51.422;5.514;2023-07-13T00:53:12;18.40;99.90
24226;DHT22;51462;51.422;5.514;2023-07-13T00:55:39;18.50;99.90
24226;DHT22;51462;51.422;5.514;2023-07-13T00:58:05;18.40;99.90
24226;DHT22;51462;51.422;5.514;2023-07-13T01:00:36;18.20;99.90
24226;DHT22;51462;51.422;5.514;2023-07-13T01:03:04;18.00;99.90
24226;DHT22;51462;51.422;5.514;2023-07-13T01:05:32;18.10;99.90
24226;DHT22;51462;51.422;5.514;2023-07-13T01:07:59;18.00;99.90
24226;DHT22;51462;51.422;5.514;2023-07-13T01:10:26;18.20;99.90
24226;DHT22;51462;51.422;5.514;2023-07-13T01:12:52;18.60;99.90
24226;DHT22;51462;51.422;5.514;2023-07-13T01:17:58;19.00;99.90
24226;DHT22;51462;51.422;5.514;2023-07-13T01:20:24;19.00;99.90
24226;DHT22;51462;51.422;5.514;2023-07-13T01:22:50;18.90;99.90
24226;DHT22;51462;51.422;5.514;2023-07-13T01:25:16;18.50;99.90
24226;DHT22;51462;51.422;5.514;2023-07-13T01:27:42;18.30;99.90
24226;DHT22;51462;51.422;5.514;2023-07-13T01:30:08;17.90;99.90
24226;DHT22;51462;51.422;5.514;2023-07-13T01:32:34;18.20;99.90
24226;DHT22;51462;51.422;5.514;2023-07-13T01:34:59;18.20;99.90
24226;DHT22;51462;51.422;5.514;2023-07-13T01:37:26;18.50;99.90
24226;DHT22;51462;51.422;5.514;2023-07-13T01:39:52;18.80;99.90
24226;DHT22;51462;51.422;5.514;2023-07-13T01:42:18;18.80;99.90
24226;DHT22;51462;51.422;5.514;2023-07-13T01:44:43;18.50;99.90
24226;DHT22;51462;51.422;5.514;2023-07-13T01:47:10;18.60;99.90
24226;DHT22;51462;51.422;5.514;2023-07-13T01:49:36;18.70;99.90
24226;DHT22;51462;51.422;5.514;2023-07-13T01:52:03;18.60;99.90
24226;DHT22;51462;51.422;5.514;2023-07-13T01:54:29;18.30;99.90
24226;DHT22;51462;51.422;5.514;2023-07-13T01:56:54;18.10;99.90
24226;DHT22;51462;51.422;5.514;2023-07-13T01:59:20;18.10;99.90
24226;DHT22;51462;51.422;5.514;2023-07-13T02:01:45;18.20;99.90
24226;DHT22;51462;51.422;5.514;2023-07-13T02:04:11;18.20;99.90
24226;DHT22;51462;51.422;5.514;2023-07-13T02:06:36;18.20;99.90
24226;DHT22;51462;51.422;5.514;2023-07-13T02:09:02;18.20;99.90
24226;DHT22;51462;51.422;5.514;2023-07-13T02:11:28;18.20;99.90
24226;DHT22;51462;51.422;5.514;2023-07-13T02:14:01;18.40;99.90
24226;DHT22;51462;51.422;5.514;2023-07-13T02:16:28;18.10;99.90
24226;DHT22;51462;51.422;5.514;2023-07-13T02:18:53;18.40;99.90
24226;DHT22;51462;51.422;5.514;2023-07-13T02:21:20;18.00;99.90
24226;DHT22;51462;51.422;5.514;2023-07-13T02:23:46;17.70;99.90
24226;DHT22;51462;51.422;5.514;2023-07-13T02:26:11;18.00;99.90
24226;DHT22;51462;51.422;5.514;2023-07-13T02:28:37;17.40;99.90
24226;DHT22;51462;51.422;5.514;2023-07-13T02:31:13;17.60;99.90
24226;DHT22;51462;51.422;5.514;2023-07-13T02:33:40;17.50;99.90
24226;DHT22;51462;51.422;5.514;2023-07-13T02:36:06;17.50;99.90
24226;DHT22;51462;51.422;5.514;2023-07-13T02:38:33;17.80;99.90
24226;DHT22;51462;51.422;5.514;2023-07-13T02:40:59;18.00;99.90
24226;DHT22;51462;51.422;5.514;2023-07-13T02:43:25;17.90;99.90
24226;DHT22;51462;51.422;5.514;2023-07-13T02:45:51;17.80;99.90
24226;DHT22;51462;51.422;5.514;2023-07-13T02:48:17;18.00;99.90
24226;DHT22;51462;51.422;5.514;2023-07-13T02:50:44;17.90;99.90
24226;DHT22;51462;51.422;5.514;2023-07-13T02:53:10;17.80;99.90
24226;DHT22;51462;51.422;5.514;2023-07-13T02:55:35;17.80;99.90
24226;DHT22;51462;51.422;5.514;2023-07-13T02:58:01;17.60;99.90
24226;DHT22;51462;51.422;5.514;2023-07-13T03:00:27;17.90;99.90
24226;DHT22;51462;51.422;5.514;2023-07-13T03:02:53;17.60;99.90
24226;DHT22;51462;51.422;5.514;2023-07-13T03:05:22;17.40;99.90
24226;DHT22;51462;51.422;5.514;2023-07-13T03:07:47;17.70;99.90
24226;DHT22;51462;51.422;5.514;2023-07-13T03:10:14;17.40;99.90
24226;DHT22;51462;51.422;5.514;2023-07-13T03:12:40;17.80;99.90
24226;DHT22;51462;51.422;5.514;2023-07-13T03:15:06;18.10;99.90
24226;DHT22;51462;51.422;5.514;2023-07-13T03:17:31;17.90;99.90
24226;DHT22;51462;51.422;5.514;2023-07-13T03:19:57;17.40;99.90
24226;DHT22;51462;51.422;5.514;2023-07-13T03:22:23;17.80;99.90
24226;DHT22;51462;51.422;5.514;2023-07-13T03:24:48;17.60;99.90
24226;DHT22;51462;51.422;5.514;2023-07-13T03:27:16;17.90;99.90
24226;DHT22;51462;51.422;5.514;2023-07-13T03:29:42;18.00;99.90
24226;DHT22;51462;51.422;5.514;2023-07-13T03:32:09;17.80;99.90
24226;DHT22;51462;51.422;5.514;2023-07-13T03:34:35;17.70;99.90
24226;DHT22;51462;51.422;5.514;2023-07-13T03:37:00;18.00;99.90
24226;DHT22;51462;51.422;5.514;2023-07-13T03:39:26;18.10;99.90
24226;DHT22;51462;51.422;5.514;2023-07-13T03:41:52;18.00;99.90
24226;DHT22;51462;51.422;5.514;2023-07-13T03:44:18;17.90;99.90
24226;DHT22;51462;51.422;5.514;2023-07-13T03:46:44;17.40;99.90
24226;DHT22;51462;51.422;5.514;2023-07-13T03:49:10;17.80;99.90
24226;DHT22;51462;51.422;5.514;2023-07-13T03:51:36;17.90;99.90
24226;DHT22;51462;51.422;5.514;2023-07-13T03:54:02;18.40;99.90
24226;DHT22;51462;51.422;5.514;2023-07-13T03:56:28;18.30;99.90
24226;DHT22;51462;51.422;5.514;2023-07-13T03:58:55;18.30;99.90
24226;DHT22;51462;51.422;5.514;2023-07-13T04:01:22;17.80;99.90
24226;DHT22;51462;51.422;5.514;2023-07-13T04:03:49;17.70;99.90
24226;DHT22;51462;51.422;5.514;2023-07-13T04:06:28;18.10;99.90
24226;DHT22;51462;51.422;5.514;2023-07-13T04:08:56;18.10;99.90
24226;DHT22;51462;51.422;5.514;2023-07-13T04:11:24;17.90;99.90
24226;DHT22;51462;51.422;5.514;2023-07-13T04:13:50;17.60;99.90
24226;DHT22;51462;51.422;5.514;2023-07-13T04:16:17;17.50;99.90
24226;DHT22;51462;51.422;5.514;2023-07-13T04:18:45;17.80;99.90
24226;DHT22;51462;51.422;5.514;2023-07-13T04:21:11;17.30;99.90
24226;DHT22;51462;51.422;5.514;2023-07-13T04:23:37;17.60;99.90
24226;DHT22;51462;51.422;5.514;2023-07-13T04:26:03;17.90;99.90
24226;DHT22;51462;51.422;5.514;2023-07-13T04:28:29;17.80;99.90
24226;DHT22;51462;51.422;5.514;2023-07-13T04:30:55;17.90;99.90
24226;DHT22;51462;51.422;5.514;2023-07-13T04:33:21;17.50;99.90
24226;DHT22;51462;51.422;5.514;2023-07-13T04:35:49;17.50;99.90
24226;DHT22;51462;51.422;5.514;2023-07-13T04:38:15;17.70;99.90
24226;DHT22;51462;51.422;5.514;2023-07-13T04:40:44;18.10;99.90
24226;DHT22;51462;51.422;5.514;2023-07-13T04:43:10;17.70;99.90
24226;DHT22;51462;51.422;5.514;2023-07-13T04:45:36;17.10;99.90
24226;DHT22;51462;51.422;5.514;2023-07-13T04:48:02;16.90;99.90
24226;DHT22;51462;51.422;5.514;2023-07-13T04:50:28;17.20;99.90
24226;DHT22;51462;51.422;5.514;2023-07-13T04:52:53;16.90;99.90
24226;DHT22;51462;51.422;5.514;2023-07-13T04:55:20;17.30;99.90
24226;DHT22;51462;51.422;5.514;2023-07-13T04:57:46;17.40;99.90
24226;DHT22;51462;51.422;5.514;2023-07-13T05:00:13;17.50;99.90
24226;DHT22;51462;51.422;5.514;2023-07-13T05:02:43;17.80;99.90
24226;DHT22;51462;51.422;5.514;2023-07-13T05:05:09;17.60;99.90
24226;DHT22;51462;51.422;5.514;2023-07-13T05:07:35;17.40;99.90
24226;DHT22;51462;51.422;5.514;2023-07-13T05:10:01;17.40;99.90
24226;DHT22;51462;51.422;5.514;2023-07-13T05:12:27;17.40;99.90
24226;DHT22;51462;51.422;5.514;2023-07-13T05:14:53;17.90;99.90
24226;DHT22;51462;51.422;5.514;2023-07-13T05:17:18;17.60;99.90
24226;DHT22;51462;51.422;5.514;2023-07-13T05:19:44;17.70;99.90
24226;DHT22;51462;51.422;5.514;2023-07-13T05:22:10;17.50;99.90
24226;DHT22;51462;51.422;5.514;2023-07-13T05:24:35;17.80;99.90
24226;DHT22;51462;51.422;5.514;2023-07-13T05:27:01;17.90;99.90
24226;DHT22;51462;51.422;5.514;2023-07-13T05:29:27;17.70;99.90
24226;DHT22;51462;51.422;5.514;2023-07-13T05:31:53;17.80;99.90
24226;DHT22;51462;51.422;5.514;2023-07-13T05:34:18;17.90;99.90
24226;DHT22;51462;51.422;5.514;2023-07-13T05:36:44;18.00;99.90
24226;DHT22;51462;51.422;5.514;2023-07-13T05:39:10;17.90;99.90
24226;DHT22;51462;51.422;5.514;2023-07-13T05:41:37;17.80;99.90
24226;DHT22;51462;51.422;5.514;2023-07-13T05:44:03;17.80;99.90
24226;DHT22;51462;51.422;5.514;2023-07-13T05:46:29;17.70;99.90
24226;DHT22;51462;51.422;5.514;2023-07-13T05:48:55;17.50;99.90
24226;DHT22;51462;51.422;5.514;2023-07-13T05:51:20;17.50;99.90
24226;DHT22;51462;51.422;5.514;2023-07-13T05:53:46;18.10;99.90
24226;DHT22;51462;51.422;5.514;2023-07-13T05:56:11;18.50;99.90
24226;DHT22;51462;51.422;5.514;2023-07-13T05:58:37;18.60;99.90
24226;DHT22;51462;51.422;5.514;2023-07-13T06:01:10;18.30;99.90
24226;DHT22;51462;51.422;5.514;2023-07-13T06:03:36;18.20;99.90
24226;DHT22;51462;51.422;5.514;2023-07-13T06:06:04;18.00;99.90
24226;DHT22;51462;51.422;5.514;2023-07-13T06:08:30;18.10;99.90
24226;DHT22;51462;51.422;5.514;2023-07-13T06:11:05;17.90;99.90
24226;DHT22;51462;51.422;5.514;2023-07-13T06:13:31;18.00;99.90
24226;DHT22;51462;51.422;5.514;2023-07-13T06:15:57;18.10;99.90
24226;DHT22;51462;51.422;5.514;2023-07-13T06:18:22;18.30;99.90
24226;DHT22;51462;51.422;5.514;2023-07-13T06:20:48;18.20;99.90
24226;DHT22;51462;51.422;5.514;2023-07-13T06:23:14;18.10;99.90
24226;DHT22;51462;51.422;5.514;2023-07-13T06:25:40;18.10;99.90
24226;DHT22;51462;51.422;5.514;2023-07-13T06:28:06;18.30;99.90
24226;DHT22;51462;51.422;5.514;2023-07-13T06:30:31;18.20;99.90
24226;DHT22;51462;51.422;5.514;2023-07-13T06:32:57;18.00;99.90
24226;DHT22;51462;51.422;5.514;2023-07-13T06:35:23;18.50;99.90
24226;DHT22;51462;51.422;5.514;2023-07-13T06:37:48;18.20;99.90
24226;DHT22;51462;51.422;5.514;2023-07-13T06:40:14;18.40;99.90
24226;DHT22;51462;51.422;5.514;2023-07-13T06:42:40;18.20;99.90
24226;DHT22;51462;51.422;5.514;2023-07-13T06:45:06;18.30;99.90
24226;DHT22;51462;51.422;5.514;2023-07-13T06:47:31;18.20;99.90
24226;DHT22;51462;51.422;5.514;2023-07-13T06:49:57;18.70;99.90
24226;DHT22;51462;51.422;5.514;2023-07-13T06:52:23;18.60;99.90
24226;DHT22;51462;51.422;5.514;2023-07-13T06:54:48;18.50;99.90
24226;DHT22;51462;51.422;5.514;2023-07-13T06:57:14;18.50;99.90
24226;DHT22;51462;51.422;5.514;2023-07-13T06:59:40;18.60;99.90
24226;DHT22;51462;51.422;5.514;2023-07-13T07:02:06;18.60;99.90
24226;DHT22;51462;51.422;5.514;2023-07-13T07:04:31;18.30;99.90
24226;DHT22;51462;51.422;5.514;2023-07-13T07:06:58;18.50;99.90
24226;DHT22;51462;51.422;5.514;2023-07-13T07:09:24;18.60;99.90
24226;DHT22;51462;51.422;5.514;2023-07-13T07:11:49;18.70;99.90
24226;DHT22;51462;51.422;5.514;2023-07-13T07:14:15;18.50;99.90
24226;DHT22;51462;51.422;5.514;2023-07-13T07:16:41;18.50;99.90
24226;DHT22;51462;51.422;5.514;2023-07-13T07:19:06;18.30;99.90
24226;DHT22;51462;51.422;5.514;2023-07-13T07:21:32;18.70;99.90
24226;DHT22;51462;51.422;5.514;2023-07-13T07:23:57;18.90;99.90
24226;DHT22;51462;51.422;5.514;2023-07-13T07:26:25;18.80;99.90
24226;DHT22;51462;51.422;5.514;2023-07-13T07:28:51;19.10;99.90
24226;DHT22;51462;51.422;5.514;2023-07-13T07:31:16;19.10;99.90
24226;DHT22;51462;51.422;5.514;2023-07-13T07:33:42;19.00;99.90
24226;DHT22;51462;51.422;5.514;2023-07-13T07:36:08;18.90;99.90
24226;DHT22;51462;51.422;5.514;2023-07-13T07:38:34;19.00;99.90
24226;DHT22;51462;51.422;5.514;2023-07-13T07:41:03;19.00;99.90
24226;DHT22;51462;51.422;5.514;2023-07-13T07:43:29;18.90;99.90
24226;DHT22;51462;51.422;5.514;2023-07-13T07:45:55;19.20;99.90
24226;DHT22;51462;51.422;5.514;2023-07-13T07:48:21;19.00;99.90
24226;DHT22;51462;51.422;5.514;2023-07-13T07:50:47;19.20;99.90
24226;DHT22;51462;51.422;5.514;2023-07-13T07:53:12;19.10;99.90
24226;DHT22;51462;51.422;5.514;2023-07-13T07:55:38;19.20;99.90
24226;DHT22;51462;51.422;5.514;2023-07-13T07:58:04;19.20;99.90
24226;DHT22;51462;51.422;5.514;2023-07-13T08:00:30;19.00;99.90
24226;DHT22;51462;51.422;5.514;2023-07-13T08:02:57;19.30;99.90
24226;DHT22;51462;51.422;5.514;2023-07-13T08:05:24;19.20;99.90
24226;DHT22;51462;51.422;5.514;2023-07-13T08:07:49;19.40;99.90
24226;DHT22;51462;51.422;5.514;2023-07-13T08:10:15;19.50;99.90
24226;DHT22;51462;51.422;5.514;2023-07-13T08:12:41;19.60;99.90
24226;DHT22;51462;51.422;5.514;2023-07-13T08:15:11;19.60;99.90
24226;DHT22;51462;51.422;5.514;2023-07-13T08:17:37;19.60;99.90
24226;DHT22;51462;51.422;5.514;2023-07-13T08:20:03;19.70;99.90
24226;DHT22;51462;51.422;5.514;2023-07-13T08:22:29;19.90;99.90
24226;DHT22;51462;51.422;5.514;2023-07-13T08:24:55;19.90;99.90
24226;DHT22;51462;51.422;5.514;2023-07-13T08:27:25;19.80;99.90
24226;DHT22;51462;51.422;5.514;2023-07-13T08:29:52;19.80;99.90
24226;DHT22;51462;51.422;5.514;2023-07-13T08:32:18;19.90;99.90
24226;DHT22;51462;51.422;5.514;2023-07-13T08:34:44;19.80;99.90
24226;DHT22;51462;51.422;5.514;2023-07-13T08:37:10;19.90;99.90
24226;DHT22;51462;51.422;5.514;2023-07-13T08:39:36;19.90;99.90
24226;DHT22;51462;51.422;5.514;2023-07-13T08:42:39;20.00;99.90
24226;DHT22;51462;51.422;5.514;2023-07-13T08:48:16;20.20;99.90
24226;DHT22;51462;51.422;5.514;2023-07-13T08:53:38;20.10;99.90
24226;DHT22;51462;51.422;5.514;2023-07-13T08:56:11;20.10;99.90
24226;DHT22;51462;51.422;5.514;2023-07-13T08:58:41;20.20;99.90
24226;DHT22;51462;51.422;5.514;2023-07-13T09:04:09;20.30;99.90
24226;DHT22;51462;51.422;5.514;2023-07-13T09:07:09;20.30;99.90
24226;DHT22;51462;51.422;5.514;2023-07-13T09:14:53;20.60;99.90
24226;DHT22;51462;51.422;5.514;2023-07-13T09:17:37;20.70;99.90
24226;DHT22;51462;51.422;5.514;2023-07-13T09:20:29;20.80;99.90
24226;DHT22;51462;51.422;5.514;2023-07-13T09:22:59;21.00;99.90
24226;DHT22;51462;51.422;5.514;2023-07-13T09:25:35;20.70;99.90
24226;DHT22;51462;51.422;5.514;2023-07-13T09:28:12;20.60;99.90
24226;DHT22;51462;51.422;5.514;2023-07-13T09:31:03;20.90;99.90
24226;DHT22;51462;51.422;5.514;2023-07-13T09:33:30;20.90;99.90
24226;DHT22;51462;51.422;5.514;2023-07-13T09:35:59;20.90;99.90
24226;DHT22;51462;51.422;5.514;2023-07-13T09:38:29;21.00;99.90
24226;DHT22;51462;51.422;5.514;2023-07-13T09:44:01;21.10;99.90
24226;DHT22;51462;51.422;5.514;2023-07-13T09:46:27;21.10;99.90
24226;DHT22;51462;51.422;5.514;2023-07-13T09:48:52;21.30;99.90
24226;DHT22;51462;51.422;5.514;2023-07-13T09:51:18;21.40;99.90
24226;DHT22;51462;51.422;5.514;2023-07-13T09:53:44;21.40;99.90
24226;DHT22;51462;51.422;5.514;2023-07-13T09:56:24;21.50;99.90
24226;DHT22;51462;51.422;5.514;2023-07-13T09:58:50;21.50;99.90
24226;DHT22;51462;51.422;5.514;2023-07-13T10:01:16;21.50;99.90
24226;DHT22;51462;51.422;5.514;2023-07-13T10:03:55;21.30;99.90
24226;DHT22;51462;51.422;5.514;2023-07-13T10:06:22;21.20;99.90
24226;DHT22;51462;51.422;5.514;2023-07-13T10:08:49;21.30;99.90
24226;DHT22;51462;51.422;5.514;2023-07-13T10:11:22;21.40;99.90
24226;DHT22;51462;51.422;5.514;2023-07-13T10:14:02;21.60;99.90
24226;DHT22;51462;51.422;5.514;2023-07-13T10:16:30;21.70;99.90
24226;DHT22;51462;51.422;5.514;2023-07-13T10:19:08;21.80;99.90
24226;DHT22;51462;51.422;5.514;2023-07-13T10:21:41;21.90;99.90
24226;DHT22;51462;51.422;5.514;2023-07-13T10:24:24;21.70;99.90
24226;DHT22;51462;51.422;5.514;2023-07-13T10:29:38;21.80;99.90
24226;DHT22;51462;51.422;5.514;2023-07-13T10:32:10;21.90;99.90
24226;DHT22;51462;51.422;5.514;2023-07-13T10:34:37;22.00;99.90
24226;DHT22;51462;51.422;5.514;2023-07-13T10:37:05;22.10;99.90
24226;DHT22;51462;51.422;5.514;2023-07-13T10:39:35;22.00;99.90
24226;DHT22;51462;51.422;5.514;2023-07-13T10:42:04;21.90;99.90
24226;DHT22;51462;51.422;5.514;2023-07-13T10:44:32;22.00;99.90
24226;DHT22;51462;51.422;5.514;2023-07-13T10:47:01;22.00;99.90
24226;DHT22;51462;51.422;5.514;2023-07-13T10:49:30;21.90;99.90
24226;DHT22;51462;51.422;5.514;2023-07-13T10:52:00;21.90;99.90
24226;DHT22;51462;51.422;5.514;2023-07-13T10:54:30;21.90;99.90
24226;DHT22;51462;51.422;5.514;2023-07-13T10:57:16;21.80;99.90
24226;DHT22;51462;51.422;5.514;2023-07-13T10:59:48;21.60;99.90
24226;DHT22;51462;51.422;5.514;2023-07-13T11:02:23;21.30;99.90
24226;DHT22;51462;51.422;5.514;2023-07-13T11:04:52;21.20;99.90
24226;DHT22;51462;51.422;5.514;2023-07-13T11:07:28;21.50;99.90
24226;DHT22;51462;51.422;5.514;2023-07-13T11:10:05;21.70;99.90
24226;DHT22;51462;51.422;5.514;2023-07-13T11:12:54;21.80;99.90
24226;DHT22;51462;51.422;5.514;2023-07-13T11:15:52;21.90;99.90
24226;DHT22;51462;51.422;5.514;2023-07-13T11:18:23;21.90;99.90
24226;DHT22;51462;51.422;5.514;2023-07-13T11:20:50;21.90;99.90
24226;DHT22;51462;51.422;5.514;2023-07-13T11:23:18;21.80;99.90
24226;DHT22;51462;51.422;5.514;2023-07-13T11:25:45;21.70;99.90
24226;DHT22;51462;51.422;5.514;2023-07-13T11:35:51;21.60;99.90
24226;DHT22;51462;51.422;5.514;2023-07-13T11:41:02;22.10;99.90
24226;DHT22;51462;51.422;5.514;2023-07-13T11:43:29;22.30;99.90
24226;DHT22;51462;51.422;5.514;2023-07-13T11:45:54;22.20;99.90
24226;DHT22;51462;51.422;5.514;2023-07-13T11:48:24;22.10;99.90
24226;DHT22;51462;51.422;5.514;2023-07-13T11:51:04;22.10;99.90
24226;DHT22;51462;51.422;5.514;2023-07-13T11:53:44;22.20;99.90
24226;DHT22;51462;51.422;5.514;2023-07-13T11:56:11;22.20;99.90
24226;DHT22;51462;51.422;5.514;2023-07-13T11:58:38;22.30;99.90
24226;DHT22;51462;51.422;5.514;2023-07-13T12:01:04;22.60;99.90
24226;DHT22;51462;51.422;5.514;2023-07-13T12:03:32;22.70;99.90
24226;DHT22;51462;51.422;5.514;2023-07-13T12:06:05;22.90;99.90
24226;DHT22;51462;51.422;5.514;2023-07-13T12:08:38;23.20;99.90
24226;DHT22;51462;51.422;5.514;2023-07-13T12:11:15;23.40;99.90
24226;DHT22;51462;51.422;5.514;2023-07-13T12:13:41;23.90;99.90
24226;DHT22;51462;51.422;5.514;2023-07-13T12:16:35;23.90;99.90
24226;DHT22;51462;51.422;5.514;2023-07-13T12:19:03;23.50;99.90
24226;DHT22;51462;51.422;5.514;2023-07-13T12:21:34;23.50;99.90
24226;DHT22;51462;51.422;5.514;2023-07-13T12:24:01;23.60;99.90
24226;DHT22;51462;51.422;5.514;2023-07-13T12:26:29;23.80;99.90
24226;DHT22;51462;51.422;5.514;2023-07-13T12:28:58;23.70;99.90
24226;DHT22;51462;51.422;5.514;2023-07-13T12:31:44;23.90;99.90
24226;DHT22;51462;51.422;5.514;2023-07-13T12:34:16;23.90;99.90
24226;DHT22;51462;51.422;5.514;2023-07-13T12:36:49;24.00;99.90
24226;DHT22;51462;51.422;5.514;2023-07-13T12:39:17;24.00;99.90
24226;DHT22;51462;51.422;5.514;2023-07-13T12:41:44;23.90;99.90
24226;DHT22;51462;51.422;5.514;2023-07-13T12:44:28;23.60;99.90
24226;DHT22;51462;51.422;5.514;2023-07-13T12:46:59;23.30;99.90
24226;DHT22;51462;51.422;5.514;2023-07-13T12:49:30;23.50;99.90
24226;DHT22;51462;51.422;5.514;2023-07-13T12:52:00;23.40;99.90
24226;DHT22;51462;51.422;5.514;2023-07-13T12:54:27;23.40;99.90
24226;DHT22;51462;51.422;5.514;2023-07-13T12:56:53;23.30;99.90
24226;DHT22;51462;51.422;5.514;2023-07-13T12:59:23;23.30;99.90
24226;DHT22;51462;51.422;5.514;2023-07-13T13:01:49;23.10;99.90
24226;DHT22;51462;51.422;5.514;2023-07-13T13:04:15;22.90;99.90
24226;DHT22;51462;51.422;5.514;2023-07-13T13:06:41;22.90;99.90
24226;DHT22;51462;51.422;5.514;2023-07-13T13:09:13;22.40;99.90
24226;DHT22;51462;51.422;5.514;2023-07-13T13:11:39;22.30;99.90
24226;DHT22;51462;51.422;5.514;2023-07-13T13:14:06;22.40;99.90
24226;DHT22;51462;51.422;5.514;2023-07-13T13:16:35;22.30;99.90
24226;DHT22;51462;51.422;5.514;2023-07-13T13:19:16;22.60;99.90
24226;DHT22;51462;51.422;5.514;2023-07-13T13:21:46;22.40;99.90
24226;DHT22;51462;51.422;5.514;2023-07-13T13:24:17;22.00;99.90
24226;DHT22;51462;51.422;5.514;2023-07-13T13:26:45;22.00;99.90
24226;DHT22;51462;51.422;5.514;2023-07-13T13:29:19;21.70;99.90
24226;DHT22;51462;51.422;5.514;2023-07-13T13:31:45;21.90;99.90
24226;DHT22;51462;51.422;5.514;2023-07-13T13:34:15;22.20;99.90
24226;DHT22;51462;51.422;5.514;2023-07-13T13:36:43;21.70;99.90
24226;DHT22;51462;51.422;5.514;2023-07-13T13:39:43;21.80;99.90
24226;DHT22;51462;51.422;5.514;2023-07-13T13:42:10;21.40;99.90
24226;DHT22;51462;51.422;5.514;2023-07-13T13:44:35;21.50;99.90
24226;DHT22;51462;51.422;5.514;2023-07-13T13:47:01;22.00;99.90
24226;DHT22;51462;51.422;5.514;2023-07-13T13:49:29;21.90;99.90
24226;DHT22;51462;51.422;5.514;2023-07-13T13:51:58;21.70;99.90
24226;DHT22;51462;51.422;5.514;2023-07-13T13:54:25;22.10;99.90
24226;DHT22;51462;51.422;5.514;2023-07-13T13:56:52;22.00;99.90
24226;DHT22;51462;51.422;5.514;2023-07-13T13:59:18;22.10;99.90
24226;DHT22;51462;51.422;5.514;2023-07-13T14:01:45;22.10;99.90
24226;DHT22;51462;51.422;5.514;2023-07-13T14:04:17;21.80;99.90
24226;DHT22;51462;51.422;5.514;2023-07-13T14:06:43;21.60;99.90
24226;DHT22;51462;51.422;5.514;2023-07-13T14:09:14;21.40;99.90
24226;DHT22;51462;51.422;5.514;2023-07-13T14:11:41;21.60;99.90
24226;DHT22;51462;51.422;5.514;2023-07-13T14:14:14;21.60;99.90
24226;DHT22;51462;51.422;5.514;2023-07-13T14:16:41;21.50;99.90
24226;DHT22;51462;51.422;5.514;2023-07-13T14:19:11;21.30;99.90
24226;DHT22;51462;51.422;5.514;2023-07-13T14:21:37;21.60;99.90
24226;DHT22;51462;51.422;5.514;2023-07-13T14:24:02;21.70;99.90
24226;DHT22;51462;51.422;5.514;2023-07-13T14:26:30;21.60;99.90
24226;DHT22;51462;51.422;5.514;2023-07-13T14:28:57;21.70;99.90
24226;DHT22;51462;51.422;5.514;2023-07-13T14:31:25;21.60;99.90
24226;DHT22;51462;51.422;5.514;2023-07-13T14:33:51;21.60;99.90
24226;DHT22;51462;51.422;5.514;2023-07-13T14:38:50;21.40;99.90
24226;DHT22;51462;51.422;5.514;2023-07-13T14:41:16;21.30;99.90
24226;DHT22;51462;51.422;5.514;2023-07-13T14:43:41;21.30;99.90
24226;DHT22;51462;51.422;5.514;2023-07-13T14:48:47;21.80;99.90
24226;DHT22;51462;51.422;5.514;2023-07-13T14:51:13;21.70;99.90
24226;DHT22;51462;51.422;5.514;2023-07-13T14:53:39;21.50;99.90
24226;DHT22;51462;51.422;5.514;2023-07-13T14:56:12;21.40;99.90
24226;DHT22;51462;51.422;5.514;2023-07-13T14:58:37;21.30;99.90
24226;DHT22;51462;51.422;5.514;2023-07-13T15:01:09;21.70;99.90
24226;DHT22;51462;51.422;5.514;2023-07-13T15:03:41;21.90;99.90
24226;DHT22;51462;51.422;5.514;2023-07-13T15:06:12;22.00;99.90
24226;DHT22;51462;51.422;5.514;2023-07-13T15:08:39;22.40;99.90
24226;DHT22;51462;51.422;5.514;2023-07-13T15:11:07;22.70;99.90
24226;DHT22;51462;51.422;5.514;2023-07-13T15:13:32;22.80;99.90
24226;DHT22;51462;51.422;5.514;2023-07-13T15:15:59;23.00;99.90
24226;DHT22;51462;51.422;5.514;2023-07-13T15:18:25;22.80;99.90
24226;DHT22;51462;51.422;5.514;2023-07-13T15:20:52;23.10;99.90
24226;DHT22;51462;51.422;5.514;2023-07-13T15:23:22;23.10;99.90
24226;DHT22;51462;51.422;5.514;2023-07-13T15:25:48;23.00;99.90
24226;DHT22;51462;51.422;5.514;2023-07-13T15:28:15;22.90;99.90
24226;DHT22;51462;51.422;5.514;2023-07-13T15:30:48;23.00;99.90
24226;DHT22;51462;51.422;5.514;2023-07-13T15:33:24;23.30;99.90
24226;DHT22;51462;51.422;5.514;2023-07-13T15:35:50;23.40;99.90
24226;DHT22;51462;51.422;5.514;2023-07-13T15:38:20;23.60;99.90
24226;DHT22;51462;51.422;5.514;2023-07-13T15:40:49;23.70;99.90
24226;DHT22;51462;51.422;5.514;2023-07-13T15:43:19;24.00;99.90
24226;DHT22;51462;51.422;5.514;2023-07-13T15:45:46;24.00;99.90
24226;DHT22;51462;51.422;5.514;2023-07-13T15:48:18;24.30;99.90
24226;DHT22;51462;51.422;5.514;2023-07-13T15:50:47;24.40;99.90
24226;DHT22;51462;51.422;5.514;2023-07-13T15:53:13;24.40;99.90
24226;DHT22;51462;51.422;5.514;2023-07-13T15:55:40;24.40;99.90
24226;DHT22;51462;51.422;5.514;2023-07-13T15:58:11;24.10;99.90
24226;DHT22;51462;51.422;5.514;2023-07-13T16:00:37;24.10;99.90
24226;DHT22;51462;51.422;5.514;2023-07-13T16:03:03;24.00;99.90
24226;DHT22;51462;51.422;5.514;2023-07-13T16:05:30;23.60;99.90
24226;DHT22;51462;51.422;5.514;2023-07-13T16:07:56;23.60;99.90
24226;DHT22;51462;51.422;5.514;2023-07-13T16:10:37;23.60;99.90
24226;DHT22;51462;51.422;5.514;2023-07-13T16:13:04;23.30;99.90
24226;DHT22;51462;51.422;5.514;2023-07-13T16:15:32;23.30;99.90
24226;DHT22;51462;51.422;5.514;2023-07-13T16:17:58;23.10;99.90